createdAt,value
2019-05-05T00:02:14.858Z,84.83
2019-05-05T00:04:54.448Z,84.70
2019-05-05T00:07:30.879Z,84.37
2019-05-05T00:10:09.078Z,84.33
2019-05-05T00:12:49.639Z,84.25
2019-05-05T00:15:46.410Z,84.99
2019-05-05T00:18:30.718Z,84.25
2019-05-05T00:21:09.767Z,84.20
2019-05-05T00:23:45.666Z,84.44
2019-05-05T00:26:21.589Z,84.75
2019-05-05T00:28:57.547Z,84.71
2019-05-05T00:31:34.938Z,84.71
2019-05-05T00:34:11.194Z,84.29
2019-05-05T00:36:47.167Z,84.19
2019-05-05T00:39:25.345Z,84.03
2019-05-05T00:42:00.908Z,84.07
2019-05-05T00:44:36.781Z,83.50
2019-05-05T00:47:30.642Z,84.38
2019-05-05T00:50:11.500Z,83.73
2019-05-05T00:52:47.467Z,83.88
2019-05-05T00:55:24.434Z,84.01
2019-05-05T00:58:00.513Z,83.83
2019-05-05T01:00:38.155Z,83.68
2019-05-05T01:03:15.294Z,83.68
2019-05-05T01:05:58.839Z,83.43
2019-05-05T01:08:35.375Z,83.25
2019-05-05T01:11:11.746Z,83.70
2019-05-05T01:13:47.704Z,83.53
2019-05-05T01:16:24.777Z,83.80
2019-05-05T01:19:00.960Z,83.80
2019-05-05T01:21:36.917Z,83.51
2019-05-05T01:24:14.366Z,83.19
2019-05-05T01:26:50.467Z,83.51
2019-05-05T01:29:26.411Z,83.04
2019-05-05T01:32:05.052Z,83.94
2019-05-05T01:34:45.391Z,82.92
2019-05-05T01:37:22.995Z,83.26
2019-05-05T01:40:04.972Z,83.23
2019-05-05T01:42:41.052Z,83.62
2019-05-05T01:45:17.523Z,83.54
2019-05-05T01:47:54.553Z,83.56
2019-05-05T01:50:30.549Z,83.45
2019-05-05T01:53:07.634Z,82.96
2019-05-05T01:55:45.182Z,83.21
2019-05-05T01:58:21.708Z,83.42
2019-05-05T02:00:58.075Z,83.07
2019-05-05T02:03:35.044Z,83.33
2019-05-05T02:06:11.213Z,83.11
2019-05-05T02:08:47.173Z,83.05
2019-05-05T02:11:24.669Z,83.00
2019-05-05T02:14:00.928Z,83.24
2019-05-05T02:16:36.986Z,83.39
2019-05-05T02:19:14.315Z,83.21
2019-05-05T02:21:50.423Z,82.88
2019-05-05T02:24:26.390Z,83.28
2019-05-05T02:27:02.454Z,83.22
2019-05-05T02:29:52.263Z,83.10
2019-05-05T02:32:35.912Z,83.23
2019-05-05T02:35:15.875Z,83.07
2019-05-05T02:37:50.124Z,82.35
2019-05-05T02:40:26.697Z,82.82
2019-05-05T02:43:05.340Z,83.05
2019-05-05T02:46:18.751Z,82.99
2019-05-05T02:48:58.085Z,82.96
2019-05-05T02:51:35.606Z,82.88
2019-05-05T02:54:13.661Z,82.45
2019-05-05T02:56:54.079Z,82.62
2019-05-05T02:59:32.867Z,82.46
2019-05-05T03:02:10.677Z,82.74
2019-05-05T03:04:47.349Z,82.71
2019-05-05T03:07:26.486Z,82.97
2019-05-05T03:10:03.753Z,82.89
2019-05-05T03:12:41.363Z,82.67
2019-05-05T03:15:24.449Z,82.90
2019-05-05T03:18:00.647Z,82.56
2019-05-05T03:20:36.697Z,82.79
2019-05-05T03:23:13.634Z,82.80
2019-05-05T03:25:50.562Z,82.85
2019-05-05T03:28:28.251Z,82.59
2019-05-05T03:31:05.147Z,82.63
2019-05-05T03:33:41.394Z,82.76
2019-05-05T03:36:18.180Z,82.67
2019-05-05T03:38:55.744Z,82.70
2019-05-05T03:41:39.503Z,82.77
2019-05-05T03:44:17.815Z,82.69
2019-05-05T03:46:55.028Z,82.48
2019-05-05T03:49:33.804Z,82.56
2019-05-05T03:52:10.188Z,82.56
2019-05-05T03:54:46.143Z,82.87
2019-05-05T03:57:24.478Z,82.59
2019-05-05T04:00:00.322Z,82.09
2019-05-05T04:02:40.365Z,82.07
2019-05-05T04:05:34.015Z,81.97
2019-05-05T04:08:11.571Z,82.05
2019-05-05T04:10:47.583Z,81.93
2019-05-05T04:13:24.343Z,81.74
2019-05-05T04:16:07.897Z,81.50
2019-05-05T04:18:48.357Z,81.02
2019-05-05T04:21:33.541Z,80.53
2019-05-05T04:24:03.929Z,80.99
2019-05-05T04:26:39.961Z,81.14
2019-05-05T04:29:15.902Z,80.62
2019-05-05T04:31:53.886Z,80.52
2019-05-05T04:34:29.548Z,80.40
2019-05-05T04:37:05.445Z,79.49
2019-05-05T04:39:41.341Z,80.37
2019-05-05T04:42:17.224Z,79.68
2019-05-05T04:44:53.781Z,80.23
2019-05-05T04:47:31.560Z,79.95
2019-05-05T04:50:18.440Z,79.36
2019-05-05T04:52:56.004Z,79.46
2019-05-05T04:55:33.637Z,79.45
2019-05-05T04:58:13.673Z,79.47
2019-05-05T05:00:50.025Z,79.58
2019-05-05T05:03:43.859Z,79.58
2019-05-05T05:06:21.382Z,79.81
2019-05-05T05:08:57.773Z,80.10
2019-05-05T05:11:33.783Z,80.32
2019-05-05T05:14:09.684Z,79.82
2019-05-05T05:16:45.937Z,79.46
2019-05-05T05:19:24.071Z,80.40
2019-05-05T05:22:02.218Z,80.12
2019-05-05T05:24:37.406Z,79.66
2019-05-05T05:27:13.865Z,79.17
2019-05-05T05:29:49.835Z,78.67
2019-05-05T05:32:25.812Z,77.65
2019-05-05T05:35:03.662Z,76.91
2019-05-05T05:37:39.496Z,77.63
2019-05-05T05:40:17.417Z,78.23
2019-05-05T05:42:54.194Z,77.86
2019-05-05T05:45:43.905Z,77.76
2019-05-05T05:48:23.553Z,77.72
2019-05-05T05:51:00.575Z,77.64
2019-05-05T05:53:36.514Z,77.18
2019-05-05T05:56:13.542Z,76.67
2019-05-05T05:58:49.485Z,75.70
2019-05-05T06:01:25.430Z,75.24
2019-05-05T06:04:01.306Z,74.81
2019-05-05T06:06:37.213Z,74.67
2019-05-05T06:09:14.832Z,75.24
2019-05-05T06:11:50.810Z,74.76
2019-05-05T06:14:26.706Z,75.64
2019-05-05T06:17:04.235Z,76.29
2019-05-05T06:19:40.383Z,75.97
2019-05-05T06:22:28.113Z,75.08
2019-05-05T06:24:54.216Z,73.45
2019-05-05T06:27:30.148Z,74.59
2019-05-05T06:30:06.795Z,75.09
2019-05-05T06:32:43.686Z,73.96
2019-05-05T06:35:20.405Z,73.10
2019-05-05T06:37:56.284Z,73.18
2019-05-05T06:40:39.859Z,73.25
2019-05-05T06:43:35.493Z,73.03
2019-05-05T06:46:24.912Z,72.92
2019-05-05T06:49:00.843Z,73.77
2019-05-05T06:51:36.760Z,73.13
2019-05-05T06:54:13.735Z,72.07
2019-05-05T06:56:50.024Z,72.07
2019-05-05T06:59:26.026Z,71.42
2019-05-05T07:02:04.040Z,71.44
2019-05-05T07:04:44.484Z,70.35
2019-05-05T07:07:20.694Z,70.58
2019-05-05T07:09:56.583Z,71.42
2019-05-05T07:12:34.718Z,71.52
2019-05-05T07:15:11.351Z,70.36
2019-05-05T07:17:47.264Z,70.85
2019-05-05T07:20:24.114Z,70.87
2019-05-05T07:23:03.020Z,69.68
2019-05-05T07:25:42.763Z,69.28
2019-05-05T07:28:15.392Z,69.44
2019-05-05T07:30:51.318Z,69.81
2019-05-05T07:33:27.261Z,67.60
2019-05-05T07:36:16.738Z,66.57
2019-05-05T07:38:54.601Z,66.42
2019-05-05T07:41:30.319Z,66.71
2019-05-05T07:44:06.238Z,66.21
2019-05-05T07:46:43.973Z,68.20
2019-05-05T07:49:19.958Z,67.47
2019-05-05T07:51:56.001Z,67.66
2019-05-05T07:54:34.199Z,68.16
2019-05-05T07:57:10.198Z,66.98
2019-05-05T07:59:46.106Z,66.92
2019-05-05T08:02:23.670Z,67.11
2019-05-05T08:04:59.885Z,66.42
2019-05-05T08:07:35.795Z,65.12
2019-05-05T08:10:13.774Z,65.91
2019-05-05T08:12:49.731Z,66.24
2019-05-05T08:15:26.767Z,67.57
2019-05-05T08:18:20.260Z,67.07
2019-05-05T08:20:57.732Z,68.13
2019-05-05T08:23:35.619Z,67.96
2019-05-05T08:26:13.746Z,66.91
2019-05-05T08:28:54.376Z,65.71
2019-05-05T08:31:33.452Z,65.38
2019-05-05T08:34:09.436Z,65.57
2019-05-05T08:36:45.612Z,65.48
2019-05-05T08:39:29.116Z,65.57
2019-05-05T08:42:10.577Z,64.23
2019-05-05T08:44:53.866Z,64.08
2019-05-05T08:47:30.557Z,65.90
2019-05-05T08:50:09.788Z,64.98
2019-05-05T08:52:46.830Z,65.04
2019-05-05T08:55:24.919Z,65.63
2019-05-05T08:58:00.694Z,65.12
2019-05-05T09:00:36.588Z,65.57
2019-05-05T09:03:13.838Z,65.10
2019-05-05T09:05:50.014Z,66.24
2019-05-05T09:08:25.959Z,65.32
2019-05-05T09:11:01.867Z,65.24
2019-05-05T09:13:37.782Z,64.55
2019-05-05T09:16:14.460Z,64.11
2019-05-05T09:18:57.949Z,64.13
2019-05-05T09:21:34.907Z,62.89
2019-05-05T09:24:21.481Z,63.11
2019-05-05T09:27:14.936Z,61.09
2019-05-05T09:29:50.818Z,61.66
2019-05-05T09:32:26.860Z,61.39
2019-05-05T09:35:04.737Z,62.31
2019-05-05T09:37:40.430Z,63.19
2019-05-05T09:40:19.239Z,63.28
2019-05-05T09:42:55.116Z,61.24
2019-05-05T09:45:31.096Z,61.69
2019-05-05T09:48:07.308Z,59.86
2019-05-05T09:50:43.803Z,58.39
2019-05-05T09:53:20.113Z,58.65
2019-05-05T09:55:56.020Z,58.64
2019-05-05T09:58:31.928Z,60.03
2019-05-05T10:01:08.102Z,58.00
2019-05-05T10:03:44.662Z,57.67
2019-05-05T10:06:20.678Z,57.02
2019-05-05T10:08:56.576Z,56.46
2019-05-05T10:11:32.467Z,55.15
2019-05-05T10:14:08.761Z,55.65
2019-05-05T10:16:44.661Z,54.52
2019-05-05T10:19:20.771Z,54.87
2019-05-05T10:21:56.688Z,55.61
2019-05-05T10:24:35.301Z,57.29
2019-05-05T10:27:11.221Z,56.29
2019-05-05T10:29:47.083Z,55.67
2019-05-05T10:32:24.522Z,55.34
2019-05-05T10:35:04.156Z,53.95
2019-05-05T10:37:39.651Z,53.52
2019-05-05T10:40:17.222Z,53.18
2019-05-05T10:42:53.915Z,52.45
2019-05-05T10:45:30.175Z,52.53
2019-05-05T10:48:06.164Z,51.72
2019-05-05T10:50:44.285Z,51.53
2019-05-05T10:53:19.639Z,51.99
2019-05-05T10:55:55.614Z,51.37
2019-05-05T10:58:33.489Z,50.59
2019-05-05T11:01:09.553Z,51.42
2019-05-05T11:03:45.474Z,52.42
2019-05-05T11:06:21.376Z,50.29
2019-05-05T11:08:57.375Z,49.86
2019-05-05T11:11:34.448Z,50.20
2019-05-05T11:14:10.525Z,49.83
2019-05-05T11:16:46.463Z,50.80
2019-05-05T11:19:24.102Z,52.65
2019-05-05T11:22:00.165Z,54.01
2019-05-05T11:24:36.124Z,53.79
2019-05-05T11:27:12.079Z,53.05
2019-05-05T11:30:06.159Z,51.63
2019-05-05T11:33:00.353Z,52.04
2019-05-05T11:35:46.948Z,52.12
2019-05-05T11:38:24.718Z,51.34
2019-05-05T11:41:00.753Z,50.73
2019-05-05T11:43:36.750Z,49.47
2019-05-05T11:46:14.124Z,48.58
2019-05-05T11:48:50.226Z,49.62
2019-05-05T11:51:26.178Z,48.86
2019-05-05T11:54:02.090Z,47.47
2019-05-05T11:56:47.401Z,47.68
2019-05-05T11:59:29.611Z,46.71
2019-05-05T12:02:06.185Z,46.49
2019-05-05T12:04:42.055Z,46.24
2019-05-05T12:07:17.941Z,47.32
2019-05-05T12:09:55.681Z,47.43
2019-05-05T12:12:33.579Z,48.76
2019-05-05T12:15:09.295Z,47.67
2019-05-05T12:17:45.428Z,47.27
2019-05-05T12:20:35.794Z,47.04
2019-05-05T12:23:11.922Z,46.35
2019-05-05T12:25:56.883Z,48.51
2019-05-05T12:28:31.467Z,49.17
2019-05-05T12:31:14.642Z,48.26
2019-05-05T12:33:50.588Z,49.11
2019-05-05T12:36:26.573Z,47.55
2019-05-05T12:39:04.016Z,47.45
2019-05-05T12:41:41.483Z,47.82
2019-05-05T12:44:18.958Z,47.82
2019-05-05T12:46:56.581Z,48.41
2019-05-05T12:49:33.798Z,48.65
2019-05-05T12:52:09.905Z,46.47
2019-05-05T12:54:46.059Z,47.44
2019-05-05T12:57:24.014Z,46.85
2019-05-05T12:59:59.825Z,46.76
2019-05-05T13:02:35.756Z,47.34
2019-05-05T13:05:11.795Z,46.78
2019-05-05T13:07:47.795Z,45.73
2019-05-05T13:10:24.437Z,45.01
2019-05-05T13:13:03.788Z,45.12
2019-05-05T13:15:40.962Z,45.48
2019-05-05T13:18:16.863Z,46.46
2019-05-05T13:20:54.501Z,44.65
2019-05-05T13:23:35.140Z,44.29
2019-05-05T13:26:15.678Z,45.08
2019-05-05T13:28:51.579Z,44.36
2019-05-05T13:31:27.455Z,43.89
2019-05-05T13:34:04.420Z,44.73
2019-05-05T13:36:40.389Z,44.96
2019-05-05T13:39:16.311Z,45.45
2019-05-05T13:41:53.954Z,44.36
2019-05-05T13:44:33.689Z,45.62
2019-05-05T13:47:09.319Z,47.09
2019-05-05T13:49:45.788Z,45.18
2019-05-05T13:52:24.364Z,45.22
2019-05-05T13:55:01.378Z,45.41
2019-05-05T13:57:37.387Z,45.85
2019-05-05T14:00:15.371Z,46.02
2019-05-05T14:02:54.459Z,45.75
2019-05-05T14:05:31.854Z,46.34
2019-05-05T14:08:15.450Z,45.81
2019-05-05T14:10:54.246Z,46.04
2019-05-05T14:13:30.117Z,46.36
2019-05-05T14:16:05.987Z,47.91
2019-05-05T14:18:41.981Z,46.62
2019-05-05T14:21:17.870Z,46.64
2019-05-05T14:24:11.388Z,46.11
2019-05-05T14:26:47.294Z,45.80
2019-05-05T14:29:40.969Z,46.22
2019-05-05T14:32:18.412Z,46.34
2019-05-05T14:35:08.101Z,45.91
2019-05-05T14:37:45.582Z,46.74
2019-05-05T14:40:21.682Z,45.90
2019-05-05T14:42:57.597Z,44.50
2019-05-05T14:45:34.008Z,46.16
2019-05-05T14:48:10.068Z,46.17
2019-05-05T14:50:46.954Z,45.56
2019-05-05T14:53:24.188Z,46.70
2019-05-05T14:56:00.296Z,46.63
2019-05-05T14:58:36.226Z,46.94
2019-05-05T15:01:14.288Z,46.46
2019-05-05T15:03:49.901Z,48.17
2019-05-05T15:06:34.423Z,47.80
2019-05-05T15:09:28.306Z,47.79
2019-05-05T15:12:08.528Z,47.53
2019-05-05T15:14:44.425Z,47.81
2019-05-05T15:17:20.329Z,48.77
2019-05-05T15:19:56.263Z,49.38
2019-05-05T15:22:34.347Z,48.35
2019-05-05T15:25:10.583Z,48.05
2019-05-05T15:27:46.496Z,49.73
2019-05-05T15:30:24.935Z,49.41
2019-05-05T15:33:00.037Z,49.14
2019-05-05T15:35:35.940Z,49.86
2019-05-05T15:38:13.791Z,49.48
2019-05-05T15:40:49.840Z,48.53
2019-05-05T15:43:25.726Z,49.43
2019-05-05T15:46:01.629Z,50.46
2019-05-05T15:48:37.505Z,49.79
2019-05-05T15:51:14.463Z,50.04
2019-05-05T15:53:50.490Z,48.98
2019-05-05T15:56:26.507Z,49.94
2019-05-05T15:59:02.390Z,49.79
2019-05-05T16:01:38.300Z,48.95
2019-05-05T16:04:23.580Z,49.37
2019-05-05T16:07:07.042Z,49.92
2019-05-05T16:09:46.897Z,48.18
2019-05-05T16:12:31.992Z,49.81
2019-05-05T16:15:19.285Z,48.13
2019-05-05T16:18:00.992Z,47.12
2019-05-05T16:20:54.796Z,47.62
2019-05-05T16:23:35.661Z,47.98
2019-05-05T16:26:10.034Z,47.86
2019-05-05T16:28:46.202Z,47.58
2019-05-05T16:31:23.607Z,48.66
2019-05-05T16:33:59.726Z,47.88
2019-05-05T16:36:36.045Z,48.45
2019-05-05T16:39:13.824Z,48.11
2019-05-05T16:41:49.531Z,48.53
2019-05-05T16:44:25.421Z,48.94
2019-05-05T16:47:01.309Z,48.38
2019-05-05T16:49:37.206Z,48.38
2019-05-05T16:52:14.675Z,47.83
2019-05-05T16:55:07.306Z,49.47
2019-05-05T16:57:43.713Z,49.41
2019-05-05T17:00:21.600Z,50.05
2019-05-05T17:02:57.547Z,48.70
2019-05-05T17:05:34.601Z,49.20
2019-05-05T17:08:13.984Z,49.36
2019-05-05T17:10:50.006Z,48.45
2019-05-05T17:13:27.469Z,49.36
2019-05-05T17:16:21.153Z,49.93
2019-05-05T17:18:58.587Z,50.12
2019-05-05T17:21:47.937Z,49.19
2019-05-05T17:24:24.185Z,49.52
2019-05-05T17:27:00.208Z,50.42
2019-05-05T17:29:36.139Z,51.20
2019-05-05T17:32:13.821Z,51.03
2019-05-05T17:34:51.199Z,51.46
2019-05-05T17:37:27.098Z,51.47
2019-05-05T17:40:04.653Z,52.06
2019-05-05T17:42:53.284Z,52.67
2019-05-05T17:45:30.556Z,52.70
2019-05-05T17:48:08.034Z,53.55
2019-05-05T17:50:55.105Z,52.72
2019-05-05T17:53:41.295Z,53.12
2019-05-05T17:56:17.203Z,53.64
2019-05-05T17:58:53.819Z,53.69
2019-05-05T18:01:29.751Z,53.83
2019-05-05T18:04:05.727Z,53.80
2019-05-05T18:06:48.972Z,53.71
2019-05-05T18:09:26.403Z,53.80
2019-05-05T18:12:06.579Z,53.61
2019-05-05T18:14:44.425Z,54.07
2019-05-05T18:17:20.530Z,53.90
2019-05-05T18:19:56.485Z,54.14
2019-05-05T18:22:34.279Z,54.22
2019-05-05T18:25:10.334Z,54.69
2019-05-05T18:27:46.207Z,55.07
2019-05-05T18:30:23.932Z,55.04
2019-05-05T18:33:00.011Z,54.43
2019-05-05T18:35:35.924Z,54.72
2019-05-05T18:38:13.735Z,55.17
2019-05-05T18:40:50.333Z,54.62
2019-05-05T18:43:30.579Z,54.77
2019-05-05T18:46:06.486Z,54.91
2019-05-05T18:48:42.362Z,55.07
2019-05-05T18:51:18.293Z,55.09
2019-05-05T18:53:55.016Z,54.58
2019-05-05T18:56:31.053Z,54.62
2019-05-05T18:59:06.957Z,54.58
2019-05-05T19:01:56.522Z,54.58
2019-05-05T19:04:49.150Z,54.74
2019-05-05T19:07:26.643Z,54.76
2019-05-05T19:10:04.070Z,55.33
2019-05-05T19:12:41.291Z,55.35
2019-05-05T19:15:17.475Z,55.64
2019-05-05T19:17:53.530Z,55.84
2019-05-05T19:20:31.025Z,56.11
2019-05-05T19:23:06.953Z,56.22
2019-05-05T19:25:44.861Z,56.49
2019-05-05T19:28:20.902Z,56.54
2019-05-05T19:30:56.909Z,56.55
2019-05-05T19:33:34.029Z,56.88
2019-05-05T19:36:10.131Z,57.23
2019-05-05T19:38:46.034Z,57.60
2019-05-05T19:41:23.783Z,57.45
2019-05-05T19:44:01.875Z,57.97
2019-05-05T19:46:48.464Z,58.37
2019-05-05T19:49:24.350Z,58.32
2019-05-05T19:52:00.289Z,58.79
2019-05-05T19:54:36.470Z,58.75
2019-05-05T19:57:14.295Z,59.04
2019-05-05T19:59:49.964Z,59.45
2019-05-05T20:02:25.920Z,59.66
2019-05-05T20:05:00.895Z,59.61
2019-05-05T20:07:36.954Z,59.79
2019-05-05T20:10:14.717Z,60.09
2019-05-05T20:12:50.804Z,59.76
2019-05-05T20:15:28.295Z,60.23
2019-05-05T20:18:05.528Z,59.61
2019-05-05T20:20:41.468Z,60.19
2019-05-05T20:23:17.420Z,60.37
2019-05-05T20:25:56.764Z,60.29
2019-05-05T20:28:33.868Z,60.22
2019-05-05T20:31:10.859Z,60.78
2019-05-05T20:33:48.307Z,60.59
2019-05-05T20:36:25.817Z,60.73
2019-05-05T20:39:01.712Z,60.83
2019-05-05T20:41:39.392Z,60.90
2019-05-05T20:44:15.287Z,61.19
2019-05-05T20:46:53.437Z,61.50
2019-05-05T20:49:28.810Z,61.51
2019-05-05T20:52:04.742Z,61.68
2019-05-05T20:54:40.645Z,61.87
2019-05-05T20:57:16.618Z,61.78
2019-05-05T20:59:52.531Z,62.00
2019-05-05T21:02:28.435Z,61.72
2019-05-05T21:05:05.339Z,61.76
2019-05-05T21:07:41.266Z,61.86
2019-05-05T21:10:17.404Z,62.02
2019-05-05T21:12:54.378Z,62.10
2019-05-05T21:15:30.510Z,61.99
2019-05-05T21:18:06.820Z,61.73
2019-05-05T21:20:42.765Z,61.81
2019-05-05T21:23:20.260Z,61.81
2019-05-05T21:25:57.760Z,61.78
2019-05-05T21:28:34.113Z,62.21
2019-05-05T21:31:10.611Z,62.04
2019-05-05T21:33:46.560Z,62.19
2019-05-05T21:36:24.282Z,62.47
2019-05-05T21:39:00.107Z,62.58
2019-05-05T21:41:36.083Z,62.99
2019-05-05T21:44:12.016Z,63.25
2019-05-05T21:46:48.173Z,62.99
2019-05-05T21:49:24.336Z,63.31
2019-05-05T21:52:07.355Z,63.38
2019-05-05T21:54:43.926Z,63.48
2019-05-05T21:57:37.812Z,63.45
2019-05-05T22:00:15.289Z,63.62
2019-05-05T22:02:52.788Z,63.51
2019-05-05T22:05:28.736Z,63.35
2019-05-05T22:08:04.821Z,63.64
2019-05-05T22:10:40.753Z,63.60
2019-05-05T22:13:16.808Z,63.52
2019-05-05T22:15:54.550Z,63.69
2019-05-05T22:18:30.363Z,63.53
2019-05-05T22:21:10.731Z,63.46
2019-05-05T22:23:48.326Z,63.14
2019-05-05T22:26:24.274Z,63.37
2019-05-05T22:29:00.227Z,63.38
2019-05-05T22:31:36.195Z,63.13
2019-05-05T22:34:14.580Z,63.41
2019-05-05T22:36:50.656Z,63.05
2019-05-05T22:39:26.615Z,63.17
2019-05-05T22:42:04.591Z,62.80
2019-05-05T22:44:40.686Z,62.51
2019-05-05T22:47:16.655Z,62.22
2019-05-05T22:49:53.913Z,62.27
2019-05-05T22:52:30.094Z,62.52
2019-05-05T22:55:07.266Z,62.59
2019-05-05T22:57:45.088Z,62.63
2019-05-05T23:00:28.614Z,62.52
2019-05-05T23:03:06.716Z,62.71
2019-05-05T23:05:44.201Z,62.15
2019-05-05T23:08:20.167Z,62.37
2019-05-05T23:10:56.091Z,62.43
2019-05-05T23:13:33.724Z,62.38
2019-05-05T23:16:17.255Z,62.53
2019-05-05T23:18:54.740Z,62.52
2019-05-05T23:21:38.476Z,62.01
2019-05-05T23:24:31.132Z,61.93
2019-05-05T23:27:07.087Z,61.84
2019-05-05T23:29:50.709Z,61.68
2019-05-05T23:32:26.679Z,60.84
2019-05-05T23:35:02.637Z,60.90
2019-05-05T23:37:38.684Z,59.97
2019-05-05T23:40:20.468Z,59.53
2019-05-05T23:42:56.453Z,59.34
2019-05-05T23:45:34.056Z,59.01
2019-05-05T23:48:10.399Z,58.85
2019-05-05T23:50:46.465Z,56.64
2019-05-05T23:53:24.944Z,55.42
2019-05-05T23:56:01.028Z,55.63
2019-05-05T23:58:36.998Z,56.18
